sensor_id;sensor_type;location;lat;lon;timestamp;temperature;humidity
19385;DHT22;9828;54.122;17.974;2023-04-25T00:04:31;12.50;99.90
19385;DHT22;9828;54.122;17.974;2023-04-25T00:09:54;12.50;99.90
19385;DHT22;9828;54.122;17.974;2023-04-25T00:15:15;12.50;99.90
19385;DHT22;9828;54.122;17.974;2023-04-25T00:20:37;12.50;99.90
19385;DHT22;9828;54.122;17.974;2023-04-25T00:25:58;12.60;99.90
19385;DHT22;9828;54.122;17.974;2023-04-25T00:31:19;12.50;99.90
19385;DHT22;9828;54.122;17.974;2023-04-25T02:18:55;11.60;99.90
19385;DHT22;9828;54.122;17.974;2023-04-25T02:24:16;11.50;99.90
19385;DHT22;9828;54.122;17.974;2023-04-25T02:29:38;11.10;99.90
19385;DHT22;9828;54.122;17.974;2023-04-25T02:40:24;11.00;99.90
19385;DHT22;9828;54.122;17.974;2023-04-25T02:45:47;10.70;99.90
19385;DHT22;9828;54.122;17.974;2023-04-25T02:51:09;10.50;99.90
19385;DHT22;9828;54.122;17.974;2023-04-25T02:56:30;10.40;99.90
19385;DHT22;9828;54.122;17.974;2023-04-25T03:01:52;10.30;99.90
19385;DHT22;9828;54.122;17.974;2023-04-25T03:07:13;10.40;99.90
19385;DHT22;9828;54.122;17.974;2023-04-25T03:12:34;10.30;99.90
19385;DHT22;9828;54.122;17.974;2023-04-25T03:17:57;10.40;99.90
19385;DHT22;9828;54.122;17.974;2023-04-25T03:23:18;10.40;99.90
19385;DHT22;9828;54.122;17.974;2023-04-25T03:28:40;10.40;99.90
19385;DHT22;9828;54.122;17.974;2023-04-25T03:34:01;10.30;99.90
19385;DHT22;9828;54.122;17.974;2023-04-25T03:39:22;10.30;99.90
19385;DHT22;9828;54.122;17.974;2023-04-25T03:44:45;10.30;99.90
19385;DHT22;9828;54.122;17.974;2023-04-25T03:50:07;10.20;99.90
19385;DHT22;9828;54.122;17.974;2023-04-25T04:00:52;9.90;99.90
19385;DHT22;9828;54.122;17.974;2023-04-25T04:06:13;10.00;99.90
19385;DHT22;9828;54.122;17.974;2023-04-25T04:11:39;10.00;99.90
19385;DHT22;9828;54.122;17.974;2023-04-25T05:23:52;10.10;99.90
19385;DHT22;9828;54.122;17.974;2023-04-25T06:08:15;9.80;99.90
19385;DHT22;9828;54.122;17.974;2023-04-25T06:13:36;10.00;99.90
19385;DHT22;9828;54.122;17.974;2023-04-25T06:18:58;10.00;99.90
19385;DHT22;9828;54.122;17.974;2023-04-25T06:24:20;10.10;99.90
19385;DHT22;9828;54.122;17.974;2023-04-25T06:29:42;10.30;99.90
19385;DHT22;9828;54.122;17.974;2023-04-25T06:35:04;10.40;99.90
19385;DHT22;9828;54.122;17.974;2023-04-25T06:40:27;10.40;99.90
19385;DHT22;9828;54.122;17.974;2023-04-25T06:45:49;10.60;99.90
19385;DHT22;9828;54.122;17.974;2023-04-25T06:51:12;10.70;99.90
19385;DHT22;9828;54.122;17.974;2023-04-25T06:56:38;10.90;99.90
19385;DHT22;9828;54.122;17.974;2023-04-25T07:02:06;10.80;99.90
19385;DHT22;9828;54.122;17.974;2023-04-25T07:07:27;10.60;99.90
19385;DHT22;9828;54.122;17.974;2023-04-25T07:12:51;10.70;99.90
19385;DHT22;9828;54.122;17.974;2023-04-25T07:23:36;10.90;99.90
19385;DHT22;9828;54.122;17.974;2023-04-25T07:29:04;11.20;99.90
19385;DHT22;9828;54.122;17.974;2023-04-25T07:34:25;11.70;99.90
19385;DHT22;9828;54.122;17.974;2023-04-25T07:39:47;11.60;99.90
19385;DHT22;9828;54.122;17.974;2023-04-25T07:45:10;11.60;99.90
19385;DHT22;9828;54.122;17.974;2023-04-25T07:50:33;11.60;99.90
19385;DHT22;9828;54.122;17.974;2023-04-25T07:55:54;11.50;99.90
19385;DHT22;9828;54.122;17.974;2023-04-25T08:01:15;11.50;99.90
19385;DHT22;9828;54.122;17.974;2023-04-25T08:06:46;11.40;99.90
19385;DHT22;9828;54.122;17.974;2023-04-25T08:12:12;12.30;99.90
19385;DHT22;9828;54.122;17.974;2023-04-25T08:17:34;13.00;99.90
19385;DHT22;9828;54.122;17.974;2023-04-25T08:22:55;13.00;99.90
19385;DHT22;9828;54.122;17.974;2023-04-25T08:28:31;12.60;99.90
19385;DHT22;9828;54.122;17.974;2023-04-25T08:33:54;12.10;99.90
19385;DHT22;9828;54.122;17.974;2023-04-25T08:39:24;11.80;99.90
19385;DHT22;9828;54.122;17.974;2023-04-25T08:45:10;11.30;99.90
19385;DHT22;9828;54.122;17.974;2023-04-25T08:50:35;11.00;99.90
19385;DHT22;9828;54.122;17.974;2023-04-25T08:55:59;10.80;99.90
19385;DHT22;9828;54.122;17.974;2023-04-25T09:01:20;11.00;99.90
19385;DHT22;9828;54.122;17.974;2023-04-25T09:06:47;10.90;99.90
19385;DHT22;9828;54.122;17.974;2023-04-25T09:12:08;10.90;99.90
19385;DHT22;9828;54.122;17.974;2023-04-25T09:17:30;11.00;99.90
19385;DHT22;9828;54.122;17.974;2023-04-25T09:23:11;11.10;99.90
19385;DHT22;9828;54.122;17.974;2023-04-25T09:28:33;11.20;99.90
19385;DHT22;9828;54.122;17.974;2023-04-25T09:34:02;11.20;99.90
19385;DHT22;9828;54.122;17.974;2023-04-25T09:39:33;11.30;99.90
19385;DHT22;9828;54.122;17.974;2023-04-25T09:50:30;11.60;99.90
19385;DHT22;9828;54.122;17.974;2023-04-25T09:56:00;11.80;99.90
19385;DHT22;9828;54.122;17.974;2023-04-25T10:01:25;11.90;99.90
19385;DHT22;9828;54.122;17.974;2023-04-25T10:07:06;12.00;99.90
19385;DHT22;9828;54.122;17.974;2023-04-25T10:12:30;12.20;99.90
19385;DHT22;9828;54.122;17.974;2023-04-25T10:17:55;12.50;99.90
19385;DHT22;9828;54.122;17.974;2023-04-25T10:23:17;12.60;99.90
19385;DHT22;9828;54.122;17.974;2023-04-25T10:28:58;12.60;99.90
19385;DHT22;9828;54.122;17.974;2023-04-25T10:34:24;12.60;99.90
19385;DHT22;9828;54.122;17.974;2023-04-25T10:39:46;12.80;99.90
19385;DHT22;9828;54.122;17.974;2023-04-25T10:45:08;12.80;99.90
19385;DHT22;9828;54.122;17.974;2023-04-25T10:50:37;12.70;99.90
19385;DHT22;9828;54.122;17.974;2023-04-25T10:56:00;12.50;99.90
19385;DHT22;9828;54.122;17.974;2023-04-25T11:01:24;12.30;99.90
19385;DHT22;9828;54.122;17.974;2023-04-25T11:12:20;11.70;99.90
19385;DHT22;9828;54.122;17.974;2023-04-25T11:17:42;11.60;99.90
19385;DHT22;9828;54.122;17.974;2023-04-25T11:23:05;11.50;99.90
19385;DHT22;9828;54.122;17.974;2023-04-25T11:28:27;11.50;99.90
19385;DHT22;9828;54.122;17.974;2023-04-25T11:33:48;11.60;99.90
19385;DHT22;9828;54.122;17.974;2023-04-25T11:39:10;11.60;99.90
19385;DHT22;9828;54.122;17.974;2023-04-25T11:44:31;11.60;99.90
19385;DHT22;9828;54.122;17.974;2023-04-25T11:49:53;11.90;99.90
19385;DHT22;9828;54.122;17.974;2023-04-25T11:55:16;12.30;99.90
19385;DHT22;9828;54.122;17.974;2023-04-25T12:00:41;12.60;99.90
19385;DHT22;9828;54.122;17.974;2023-04-25T12:06:03;12.90;99.90
19385;DHT22;9828;54.122;17.974;2023-04-25T12:11:25;12.90;99.90
19385;DHT22;9828;54.122;17.974;2023-04-25T12:16:47;12.60;99.90
19385;DHT22;9828;54.122;17.974;2023-04-25T12:22:23;12.30;99.90
19385;DHT22;9828;54.122;17.974;2023-04-25T12:27:45;12.10;99.90
19385;DHT22;9828;54.122;17.974;2023-04-25T12:33:07;11.90;99.90
19385;DHT22;9828;54.122;17.974;2023-04-25T12:38:30;11.80;99.90
19385;DHT22;9828;54.122;17.974;2023-04-25T12:43:52;11.80;99.90
19385;DHT22;9828;54.122;17.974;2023-04-25T12:49:14;11.80;99.90
19385;DHT22;9828;54.122;17.974;2023-04-25T12:54:38;11.90;99.90
19385;DHT22;9828;54.122;17.974;2023-04-25T12:59:59;12.00;99.90
19385;DHT22;9828;54.122;17.974;2023-04-25T13:05:21;12.10;99.90
19385;DHT22;9828;54.122;17.974;2023-04-25T13:10:42;12.30;99.90
19385;DHT22;9828;54.122;17.974;2023-04-25T13:16:04;12.40;99.90
19385;DHT22;9828;54.122;17.974;2023-04-25T13:21:26;12.60;99.90
19385;DHT22;9828;54.122;17.974;2023-04-25T13:26:48;12.40;99.90
19385;DHT22;9828;54.122;17.974;2023-04-25T13:32:09;12.40;99.90
19385;DHT22;9828;54.122;17.974;2023-04-25T13:37:31;12.30;99.90
19385;DHT22;9828;54.122;17.974;2023-04-25T13:42:54;12.30;99.90
19385;DHT22;9828;54.122;17.974;2023-04-25T13:48:17;12.00;99.90
19385;DHT22;9828;54.122;17.974;2023-04-25T13:53:38;11.60;99.90
19385;DHT22;9828;54.122;17.974;2023-04-25T13:58:59;11.30;99.90
19385;DHT22;9828;54.122;17.974;2023-04-25T14:20:26;10.60;99.90
19385;DHT22;9828;54.122;17.974;2023-04-25T14:25:48;10.50;99.90
19385;DHT22;9828;54.122;17.974;2023-04-25T14:31:09;10.30;99.90
19385;DHT22;9828;54.122;17.974;2023-04-25T14:36:31;10.00;99.90
19385;DHT22;9828;54.122;17.974;2023-04-25T14:47:15;9.70;99.90
19385;DHT22;9828;54.122;17.974;2023-04-25T14:52:37;9.70;99.90
19385;DHT22;9828;54.122;17.974;2023-04-25T14:57:58;9.70;99.90
19385;DHT22;9828;54.122;17.974;2023-04-25T15:03:20;9.70;99.90
19385;DHT22;9828;54.122;17.974;2023-04-25T15:08:42;9.60;99.90
19385;DHT22;9828;54.122;17.974;2023-04-25T15:14:03;9.90;99.90
19385;DHT22;9828;54.122;17.974;2023-04-25T15:19:26;10.00;99.90
19385;DHT22;9828;54.122;17.974;2023-04-25T15:24:47;10.10;99.90
19385;DHT22;9828;54.122;17.974;2023-04-25T15:30:12;10.10;98.90
19385;DHT22;9828;54.122;17.974;2023-04-25T15:35:36;10.10;98.70
19385;DHT22;9828;54.122;17.974;2023-04-25T15:40:57;10.10;99.10
19385;DHT22;9828;54.122;17.974;2023-04-25T15:46:19;10.00;99.40
19385;DHT22;9828;54.122;17.974;2023-04-25T15:51:42;10.00;98.60
19385;DHT22;9828;54.122;17.974;2023-04-25T15:57:03;10.00;98.10
19385;DHT22;9828;54.122;17.974;2023-04-25T16:02:24;10.00;98.60
19385;DHT22;9828;54.122;17.974;2023-04-25T16:07:46;10.10;98.10
19385;DHT22;9828;54.122;17.974;2023-04-25T16:13:07;10.20;99.10
19385;DHT22;9828;54.122;17.974;2023-04-25T16:18:29;10.20;96.70
19385;DHT22;9828;54.122;17.974;2023-04-25T16:23:50;10.00;92.10
19385;DHT22;9828;54.122;17.974;2023-04-25T16:29:12;9.80;88.70
19385;DHT22;9828;54.122;17.974;2023-04-25T16:34:35;9.80;93.50
19385;DHT22;9828;54.122;17.974;2023-04-25T16:39:56;9.70;90.40
19385;DHT22;9828;54.122;17.974;2023-04-25T16:45:17;9.80;80.90
19385;DHT22;9828;54.122;17.974;2023-04-25T16:50:40;9.70;85.60
19385;DHT22;9828;54.122;17.974;2023-04-25T16:56:02;9.70;81.70
19385;DHT22;9828;54.122;17.974;2023-04-25T17:01:23;9.70;81.90
19385;DHT22;9828;54.122;17.974;2023-04-25T17:06:44;9.60;72.90
19385;DHT22;9828;54.122;17.974;2023-04-25T17:12:06;9.60;78.20
19385;DHT22;9828;54.122;17.974;2023-04-25T17:17:27;9.50;74.60
19385;DHT22;9828;54.122;17.974;2023-04-25T17:22:49;9.60;63.00
19385;DHT22;9828;54.122;17.974;2023-04-25T17:28:10;9.50;59.20
19385;DHT22;9828;54.122;17.974;2023-04-25T17:33:32;9.50;57.60
19385;DHT22;9828;54.122;17.974;2023-04-25T17:38:54;9.40;54.20
19385;DHT22;9828;54.122;17.974;2023-04-25T17:44:15;9.30;44.30
19385;DHT22;9828;54.122;17.974;2023-04-25T17:49:37;9.20;42.00
19385;DHT22;9828;54.122;17.974;2023-04-25T17:54:58;9.00;43.50
19385;DHT22;9828;54.122;17.974;2023-04-25T18:00:20;9.00;49.70
19385;DHT22;9828;54.122;17.974;2023-04-25T18:05:41;9.00;53.50
19385;DHT22;9828;54.122;17.974;2023-04-25T18:11:03;8.90;46.80
19385;DHT22;9828;54.122;17.974;2023-04-25T18:16:24;8.70;45.70
19385;DHT22;9828;54.122;17.974;2023-04-25T18:21:46;8.70;50.40
19385;DHT22;9828;54.122;17.974;2023-04-25T18:27:08;8.70;46.90
19385;DHT22;9828;54.122;17.974;2023-04-25T18:32:30;8.60;1.00
19385;DHT22;9828;54.122;17.974;2023-04-25T18:37:52;8.60;1.00
19385;DHT22;9828;54.122;17.974;2023-04-25T18:43:14;8.50;1.00
19385;DHT22;9828;54.122;17.974;2023-04-25T18:48:35;8.50;57.00
19385;DHT22;9828;54.122;17.974;2023-04-25T18:53:57;8.50;61.10
19385;DHT22;9828;54.122;17.974;2023-04-25T18:59:19;8.50;68.10
19385;DHT22;9828;54.122;17.974;2023-04-25T19:04:41;8.50;65.50
19385;DHT22;9828;54.122;17.974;2023-04-25T19:10:03;8.40;70.60
19385;DHT22;9828;54.122;17.974;2023-04-25T19:15:24;8.40;68.90
19385;DHT22;9828;54.122;17.974;2023-04-25T19:20:45;8.30;76.80
19385;DHT22;9828;54.122;17.974;2023-04-25T19:26:06;8.20;79.40
19385;DHT22;9828;54.122;17.974;2023-04-25T19:31:28;8.30;90.70
19385;DHT22;9828;54.122;17.974;2023-04-25T19:36:50;8.30;91.60
19385;DHT22;9828;54.122;17.974;2023-04-25T19:42:14;8.40;92.30
19385;DHT22;9828;54.122;17.974;2023-04-25T19:47:35;8.40;99.90
19385;DHT22;9828;54.122;17.974;2023-04-25T23:01:01;7.60;93.00
19385;DHT22;9828;54.122;17.974;2023-04-25T23:06:22;7.40;95.60
19385;DHT22;9828;54.122;17.974;2023-04-25T23:11:44;7.30;95.20
19385;DHT22;9828;54.122;17.974;2023-04-25T23:17:06;7.20;96.60
19385;DHT22;9828;54.122;17.974;2023-04-25T23:22:28;7.10;96.90
19385;DHT22;9828;54.122;17.974;2023-04-25T23:27:49;7.00;97.70
19385;DHT22;9828;54.122;17.974;2023-04-25T23:33:10;6.90;97.60
19385;DHT22;9828;54.122;17.974;2023-04-25T23:38:32;6.80;98.90
19385;DHT22;9828;54.122;17.974;2023-04-25T23:43:53;6.80;98.10
19385;DHT22;9828;54.122;17.974;2023-04-25T23:49:15;6.80;98.80
19385;DHT22;9828;54.122;17.974;2023-04-25T23:54:37;6.70;98.60
19385;DHT22;9828;54.122;17.974;2023-04-25T23:59:58;6.70;99.00
